sensor_id;sensor_type;location;lat;lon;timestamp;pressure;altitude;pressure_sealevel;temperature;humidity
68376;BME280;55318;52.068;5.188;2023-04-22T00:01:21;100880.0;;;9.67;97.89
68376;BME280;55318;52.068;5.188;2023-04-22T00:02:58;100878.0;;;9.59;98.22
68376;BME280;55318;52.068;5.188;2023-04-22T00:06:11;100884.0;;;9.56;98.07
68376;BME280;55318;52.068;5.188;2023-04-22T00:07:48;100880.0;;;9.61;97.54
68376;BME280;55318;52.068;5.188;2023-04-22T00:09:24;100877.0;;;9.63;98.1
68376;BME280;55318;52.068;5.188;2023-04-22T00:12:36;100880.0;;;9.64;97.74
68376;BME280;55318;52.068;5.188;2023-04-22T00:14:12;100872.0;;;9.53;98.8
68376;BME280;55318;52.068;5.188;2023-04-22T00:15:48;100867.0;;;9.42;99.13
68376;BME280;55318;52.068;5.188;2023-04-22T00:19:03;100861.0;;;9.35;99.23
68376;BME280;55318;52.068;5.188;2023-04-22T00:20:40;100869.0;;;9.21;99.11
68376;BME280;55318;52.068;5.188;2023-04-22T00:22:16;100866.0;;;9.07;98.66
68376;BME280;55318;52.068;5.188;2023-04-22T00:23:52;100871.0;;;9.01;98.7
68376;BME280;55318;52.068;5.188;2023-04-22T00:27:04;100875.0;;;8.98;98.67
68376;BME280;55318;52.068;5.188;2023-04-22T00:28:40;100873.0;;;8.98;98.51
68376;BME280;55318;52.068;5.188;2023-04-22T00:30:16;100875.0;;;8.96;98.75
68376;BME280;55318;52.068;5.188;2023-04-22T00:33:29;100872.0;;;8.88;99.05
68376;BME280;55318;52.068;5.188;2023-04-22T00:35:06;100871.0;;;8.69;98.32
68376;BME280;55318;52.068;5.188;2023-04-22T00:36:42;100867.0;;;8.57;98.55
68376;BME280;55318;52.068;5.188;2023-04-22T00:39:54;100865.0;;;8.45;99.08
68376;BME280;55318;52.068;5.188;2023-04-22T00:41:31;100863.0;;;8.47;99.37
68376;BME280;55318;52.068;5.188;2023-04-22T00:43:08;100864.0;;;8.4;99.13
68376;BME280;55318;52.068;5.188;2023-04-22T00:44:45;100860.0;;;8.35;98.8
68376;BME280;55318;52.068;5.188;2023-04-22T00:47:58;100864.0;;;8.27;99.21
68376;BME280;55318;52.068;5.188;2023-04-22T00:49:35;100866.0;;;8.19;99.08
68376;BME280;55318;52.068;5.188;2023-04-22T00:51:11;100870.0;;;8.11;98.67
68376;BME280;55318;52.068;5.188;2023-04-22T00:54:24;100865.0;;;8.08;99.15
68376;BME280;55318;52.068;5.188;2023-04-22T00:56:00;100868.0;;;8.03;99.2
68376;BME280;55318;52.068;5.188;2023-04-22T00:57:37;100871.0;;;7.99;99.81
68376;BME280;55318;52.068;5.188;2023-04-22T01:00:50;100876.0;;;7.94;99.66
68376;BME280;55318;52.068;5.188;2023-04-22T01:02:26;100874.0;;;7.87;99.54
68376;BME280;55318;52.068;5.188;2023-04-22T01:04:03;100875.0;;;7.78;99.68
68376;BME280;55318;52.068;5.188;2023-04-22T01:05:40;100880.0;;;7.75;100.0
68376;BME280;55318;52.068;5.188;2023-04-22T01:08:52;100875.0;;;7.68;99.88
68376;BME280;55318;52.068;5.188;2023-04-22T01:10:29;100878.0;;;7.69;99.79
68376;BME280;55318;52.068;5.188;2023-04-22T01:12:05;100880.0;;;7.63;99.92
68376;BME280;55318;52.068;5.188;2023-04-22T01:15:17;100883.0;;;7.68;100.0
68376;BME280;55318;52.068;5.188;2023-04-22T01:16:54;100880.0;;;7.62;99.93
68376;BME280;55318;52.068;5.188;2023-04-22T01:18:31;100881.0;;;7.59;99.78
68376;BME280;55318;52.068;5.188;2023-04-22T01:21:46;100878.0;;;7.59;99.94
68376;BME280;55318;52.068;5.188;2023-04-22T01:23:25;100882.0;;;7.55;99.48
68376;BME280;55318;52.068;5.188;2023-04-22T01:25:01;100883.0;;;7.45;99.51
68376;BME280;55318;52.068;5.188;2023-04-22T01:26:37;100885.0;;;7.4;99.59
68376;BME280;55318;52.068;5.188;2023-04-22T01:29:51;100892.0;;;7.35;99.64
68376;BME280;55318;52.068;5.188;2023-04-22T01:31:28;100892.0;;;7.31;99.98
68376;BME280;55318;52.068;5.188;2023-04-22T01:33:05;100890.0;;;7.32;100.0
68376;BME280;55318;52.068;5.188;2023-04-22T01:36:18;100889.0;;;7.35;100.0
68376;BME280;55318;52.068;5.188;2023-04-22T01:37:54;100893.0;;;7.31;100.0
68376;BME280;55318;52.068;5.188;2023-04-22T01:39:30;100892.0;;;7.28;100.0
68376;BME280;55318;52.068;5.188;2023-04-22T01:42:42;100893.0;;;7.18;100.0
68376;BME280;55318;52.068;5.188;2023-04-22T01:44:18;100891.0;;;7.1;100.0
68376;BME280;55318;52.068;5.188;2023-04-22T01:45:55;100892.0;;;7.08;100.0
68376;BME280;55318;52.068;5.188;2023-04-22T01:47:30;100888.0;;;7.07;100.0
68376;BME280;55318;52.068;5.188;2023-04-22T01:50:43;100889.0;;;6.99;100.0
68376;BME280;55318;52.068;5.188;2023-04-22T01:52:19;100885.0;;;6.97;100.0
68376;BME280;55318;52.068;5.188;2023-04-22T01:53:55;100880.0;;;6.92;100.0
68376;BME280;55318;52.068;5.188;2023-04-22T01:57:09;100877.0;;;6.88;99.9
68376;BME280;55318;52.068;5.188;2023-04-22T01:58:48;100873.0;;;6.86;100.0
68376;BME280;55318;52.068;5.188;2023-04-22T02:00:24;100873.0;;;6.82;100.0
68376;BME280;55318;52.068;5.188;2023-04-22T02:03:37;100876.0;;;6.8;100.0
68376;BME280;55318;52.068;5.188;2023-04-22T02:05:14;100873.0;;;6.74;100.0
68376;BME280;55318;52.068;5.188;2023-04-22T02:06:50;100877.0;;;6.8;100.0
68376;BME280;55318;52.068;5.188;2023-04-22T02:08:26;100880.0;;;6.82;100.0
68376;BME280;55318;52.068;5.188;2023-04-22T02:11:39;100880.0;;;6.74;100.0
68376;BME280;55318;52.068;5.188;2023-04-22T02:13:15;100877.0;;;6.74;100.0
68376;BME280;55318;52.068;5.188;2023-04-22T02:14:52;100876.0;;;6.73;100.0
68376;BME280;55318;52.068;5.188;2023-04-22T02:18:04;100878.0;;;6.7;100.0
68376;BME280;55318;52.068;5.188;2023-04-22T02:19:41;100876.0;;;6.77;100.0
68376;BME280;55318;52.068;5.188;2023-04-22T02:21:17;100873.0;;;6.69;100.0
68376;BME280;55318;52.068;5.188;2023-04-22T02:24:29;100875.0;;;6.68;100.0
68376;BME280;55318;52.068;5.188;2023-04-22T02:26:06;100874.0;;;6.74;100.0
68376;BME280;55318;52.068;5.188;2023-04-22T02:27:43;100869.0;;;6.7;100.0
68376;BME280;55318;52.068;5.188;2023-04-22T02:29:19;100870.0;;;6.65;100.0
68376;BME280;55318;52.068;5.188;2023-04-22T02:32:31;100866.0;;;6.66;100.0
68376;BME280;55318;52.068;5.188;2023-04-22T02:34:07;100860.0;;;6.67;100.0
68376;BME280;55318;52.068;5.188;2023-04-22T02:35:43;100858.0;;;6.69;100.0
68376;BME280;55318;52.068;5.188;2023-04-22T02:38:56;100860.0;;;6.7;100.0
68376;BME280;55318;52.068;5.188;2023-04-22T02:40:32;100859.0;;;6.8;100.0
68376;BME280;55318;52.068;5.188;2023-04-22T02:42:08;100858.0;;;6.79;100.0
68376;BME280;55318;52.068;5.188;2023-04-22T02:45:20;100857.0;;;6.79;100.0
68376;BME280;55318;52.068;5.188;2023-04-22T02:46:56;100861.0;;;6.86;100.0
68376;BME280;55318;52.068;5.188;2023-04-22T02:48:32;100862.0;;;6.88;100.0
68376;BME280;55318;52.068;5.188;2023-04-22T02:50:09;100856.0;;;6.88;100.0
68376;BME280;55318;52.068;5.188;2023-04-22T02:53:22;100860.0;;;6.92;100.0
68376;BME280;55318;52.068;5.188;2023-04-22T02:54:58;100853.0;;;6.88;100.0
68376;BME280;55318;52.068;5.188;2023-04-22T02:56:34;100851.0;;;6.87;100.0
68376;BME280;55318;52.068;5.188;2023-04-22T02:59:46;100850.0;;;6.94;100.0
68376;BME280;55318;52.068;5.188;2023-04-22T03:01:22;100851.0;;;6.93;100.0
68376;BME280;55318;52.068;5.188;2023-04-22T03:02:58;100847.0;;;6.95;100.0
68376;BME280;55318;52.068;5.188;2023-04-22T03:06:11;100844.0;;;7.0;100.0
68376;BME280;55318;52.068;5.188;2023-04-22T03:07:47;100845.0;;;6.98;100.0
68376;BME280;55318;52.068;5.188;2023-04-22T03:09:23;100842.0;;;7.0;100.0
68376;BME280;55318;52.068;5.188;2023-04-22T03:12:35;100839.0;;;7.04;100.0
68376;BME280;55318;52.068;5.188;2023-04-22T03:14:11;100835.0;;;7.06;100.0
68376;BME280;55318;52.068;5.188;2023-04-22T03:15:47;100832.0;;;7.14;100.0
68376;BME280;55318;52.068;5.188;2023-04-22T03:17:23;100836.0;;;7.09;100.0
68376;BME280;55318;52.068;5.188;2023-04-22T03:20:37;100833.0;;;7.11;100.0
68376;BME280;55318;52.068;5.188;2023-04-22T03:22:12;100826.0;;;7.13;100.0
68376;BME280;55318;52.068;5.188;2023-04-22T03:23:48;100825.0;;;7.18;100.0
68376;BME280;55318;52.068;5.188;2023-04-22T03:27:00;100830.0;;;7.26;100.0
68376;BME280;55318;52.068;5.188;2023-04-22T03:28:36;100827.0;;;7.32;100.0
68376;BME280;55318;52.068;5.188;2023-04-22T03:30:13;100825.0;;;7.41;100.0
68376;BME280;55318;52.068;5.188;2023-04-22T03:33:25;100825.0;;;7.4;100.0
68376;BME280;55318;52.068;5.188;2023-04-22T03:35:01;100824.0;;;7.39;100.0
68376;BME280;55318;52.068;5.188;2023-04-22T03:36:37;100821.0;;;7.46;100.0
68376;BME280;55318;52.068;5.188;2023-04-22T03:39:49;100818.0;;;7.54;100.0
68376;BME280;55318;52.068;5.188;2023-04-22T03:41:26;100816.0;;;7.57;100.0
68376;BME280;55318;52.068;5.188;2023-04-22T03:43:02;100813.0;;;7.59;100.0
68376;BME280;55318;52.068;5.188;2023-04-22T03:44:38;100810.0;;;7.6;100.0
68376;BME280;55318;52.068;5.188;2023-04-22T03:47:51;100805.0;;;7.6;100.0
68376;BME280;55318;52.068;5.188;2023-04-22T03:49:27;100803.0;;;7.66;100.0
68376;BME280;55318;52.068;5.188;2023-04-22T03:51:04;100797.0;;;7.68;100.0
68376;BME280;55318;52.068;5.188;2023-04-22T03:54:17;100796.0;;;7.69;100.0
68376;BME280;55318;52.068;5.188;2023-04-22T03:55:54;100794.0;;;7.73;100.0
68376;BME280;55318;52.068;5.188;2023-04-22T03:57:30;100794.0;;;7.66;100.0
68376;BME280;55318;52.068;5.188;2023-04-22T04:00:42;100797.0;;;7.66;100.0
68376;BME280;55318;52.068;5.188;2023-04-22T04:02:18;100796.0;;;7.65;100.0
68376;BME280;55318;52.068;5.188;2023-04-22T04:03:54;100795.0;;;7.65;100.0
68376;BME280;55318;52.068;5.188;2023-04-22T04:05:31;100790.0;;;7.65;100.0
68376;BME280;55318;52.068;5.188;2023-04-22T04:08:43;100787.0;;;7.62;100.0
68376;BME280;55318;52.068;5.188;2023-04-22T04:10:19;100791.0;;;7.65;100.0
68376;BME280;55318;52.068;5.188;2023-04-22T04:11:55;100784.0;;;7.69;100.0
68376;BME280;55318;52.068;5.188;2023-04-22T04:15:09;100784.0;;;7.7;100.0
68376;BME280;55318;52.068;5.188;2023-04-22T04:16:46;100780.0;;;7.69;100.0
68376;BME280;55318;52.068;5.188;2023-04-22T04:18:22;100778.0;;;7.72;100.0
68376;BME280;55318;52.068;5.188;2023-04-22T04:21:34;100773.0;;;7.7;100.0
68376;BME280;55318;52.068;5.188;2023-04-22T04:23:10;100770.0;;;7.69;100.0
68376;BME280;55318;52.068;5.188;2023-04-22T04:24:46;100770.0;;;7.69;100.0
68376;BME280;55318;52.068;5.188;2023-04-22T04:26:22;100764.0;;;7.75;100.0
68376;BME280;55318;52.068;5.188;2023-04-22T04:29:35;100762.0;;;7.82;100.0
68376;BME280;55318;52.068;5.188;2023-04-22T04:31:11;100765.0;;;7.76;100.0
68376;BME280;55318;52.068;5.188;2023-04-22T04:32:47;100768.0;;;7.72;100.0
68376;BME280;55318;52.068;5.188;2023-04-22T04:35:59;100773.0;;;7.71;100.0
68376;BME280;55318;52.068;5.188;2023-04-22T04:37:35;100778.0;;;7.74;100.0
68376;BME280;55318;52.068;5.188;2023-04-22T04:39:12;100773.0;;;7.75;100.0
68376;BME280;55318;52.068;5.188;2023-04-22T04:42:26;100758.0;;;7.8;100.0
68376;BME280;55318;52.068;5.188;2023-04-22T04:44:02;100753.0;;;7.77;100.0
68376;BME280;55318;52.068;5.188;2023-04-22T04:45:38;100755.0;;;7.8;100.0
68376;BME280;55318;52.068;5.188;2023-04-22T04:48:51;100757.0;;;7.83;100.0
68376;BME280;55318;52.068;5.188;2023-04-22T04:50:27;100755.0;;;7.8;100.0
68376;BME280;55318;52.068;5.188;2023-04-22T04:52:04;100747.0;;;7.92;100.0
68376;BME280;55318;52.068;5.188;2023-04-22T04:53:40;100753.0;;;7.95;100.0
68376;BME280;55318;52.068;5.188;2023-04-22T04:56:52;100750.0;;;7.9;100.0
68376;BME280;55318;52.068;5.188;2023-04-22T04:58:28;100755.0;;;7.9;100.0
68376;BME280;55318;52.068;5.188;2023-04-22T05:00:05;100750.0;;;7.87;100.0
68376;BME280;55318;52.068;5.188;2023-04-22T05:03:20;100750.0;;;7.87;100.0
68376;BME280;55318;52.068;5.188;2023-04-22T05:04:56;100748.0;;;7.88;100.0
68376;BME280;55318;52.068;5.188;2023-04-22T05:06:32;100748.0;;;7.89;100.0
68376;BME280;55318;52.068;5.188;2023-04-22T05:09:44;100752.0;;;7.89;100.0
68376;BME280;55318;52.068;5.188;2023-04-22T05:11:20;100755.0;;;7.92;100.0
68376;BME280;55318;52.068;5.188;2023-04-22T05:12:56;100755.0;;;7.92;100.0
68376;BME280;55318;52.068;5.188;2023-04-22T05:14:34;100759.0;;;7.98;100.0
68376;BME280;55318;52.068;5.188;2023-04-22T05:17:46;100757.0;;;7.98;100.0
68376;BME280;55318;52.068;5.188;2023-04-22T05:19:22;100761.0;;;7.98;100.0
68376;BME280;55318;52.068;5.188;2023-04-22T05:20:58;100765.0;;;8.01;100.0
68376;BME280;55318;52.068;5.188;2023-04-22T05:24:10;100766.0;;;8.06;100.0
68376;BME280;55318;52.068;5.188;2023-04-22T05:25:46;100758.0;;;8.06;100.0
68376;BME280;55318;52.068;5.188;2023-04-22T05:27:23;100760.0;;;8.15;100.0
68376;BME280;55318;52.068;5.188;2023-04-22T05:30:35;100765.0;;;8.16;100.0
68376;BME280;55318;52.068;5.188;2023-04-22T05:32:11;100766.0;;;8.22;100.0
68376;BME280;55318;52.068;5.188;2023-04-22T05:33:47;100765.0;;;8.24;100.0
68376;BME280;55318;52.068;5.188;2023-04-22T05:37:01;100764.0;;;8.26;100.0
68376;BME280;55318;52.068;5.188;2023-04-22T05:38:37;100768.0;;;8.36;100.0
68376;BME280;55318;52.068;5.188;2023-04-22T05:40:14;100768.0;;;8.32;100.0
68376;BME280;55318;52.068;5.188;2023-04-22T05:41:50;100772.0;;;8.38;100.0
68376;BME280;55318;52.068;5.188;2023-04-22T05:45:02;100775.0;;;8.41;100.0
68376;BME280;55318;52.068;5.188;2023-04-22T05:46:39;100771.0;;;8.48;100.0
68376;BME280;55318;52.068;5.188;2023-04-22T05:48:15;100770.0;;;8.6;100.0
68376;BME280;55318;52.068;5.188;2023-04-22T05:51:28;100775.0;;;8.69;100.0
68376;BME280;55318;52.068;5.188;2023-04-22T05:53:04;100777.0;;;8.73;100.0
68376;BME280;55318;52.068;5.188;2023-04-22T05:54:40;100774.0;;;8.89;100.0
68376;BME280;55318;52.068;5.188;2023-04-22T05:57:52;100776.0;;;8.84;100.0
68376;BME280;55318;52.068;5.188;2023-04-22T05:59:28;100775.0;;;8.82;100.0
68376;BME280;55318;52.068;5.188;2023-04-22T06:01:04;100775.0;;;8.89;100.0
68376;BME280;55318;52.068;5.188;2023-04-22T06:02:40;100771.0;;;9.0;100.0
68376;BME280;55318;52.068;5.188;2023-04-22T06:05:54;100771.0;;;8.97;100.0
68376;BME280;55318;52.068;5.188;2023-04-22T06:07:30;100772.0;;;8.98;100.0
68376;BME280;55318;52.068;5.188;2023-04-22T06:09:06;100774.0;;;9.05;100.0
68376;BME280;55318;52.068;5.188;2023-04-22T06:12:18;100764.0;;;9.06;100.0
68376;BME280;55318;52.068;5.188;2023-04-22T06:13:54;100764.0;;;9.18;100.0
68376;BME280;55318;52.068;5.188;2023-04-22T06:15:32;100755.0;;;9.3;100.0
68376;BME280;55318;52.068;5.188;2023-04-22T06:18:45;100749.0;;;9.4;100.0
68376;BME280;55318;52.068;5.188;2023-04-22T06:20:21;100743.0;;;9.53;100.0
68376;BME280;55318;52.068;5.188;2023-04-22T06:21:57;100746.0;;;9.65;100.0
68376;BME280;55318;52.068;5.188;2023-04-22T06:23:33;100742.0;;;9.74;100.0
68376;BME280;55318;52.068;5.188;2023-04-22T06:26:46;100743.0;;;9.77;100.0
68376;BME280;55318;52.068;5.188;2023-04-22T06:28:22;100745.0;;;9.85;100.0
68376;BME280;55318;52.068;5.188;2023-04-22T06:29:58;100739.0;;;10.01;100.0
68376;BME280;55318;52.068;5.188;2023-04-22T06:33:10;100740.0;;;10.21;100.0
68376;BME280;55318;52.068;5.188;2023-04-22T06:34:46;100737.0;;;10.15;100.0
68376;BME280;55318;52.068;5.188;2023-04-22T06:36:22;100738.0;;;10.28;100.0
68376;BME280;55318;52.068;5.188;2023-04-22T06:39:35;100733.0;;;10.43;100.0
68376;BME280;55318;52.068;5.188;2023-04-22T06:41:11;100731.0;;;10.34;100.0
68376;BME280;55318;52.068;5.188;2023-04-22T06:42:49;100732.0;;;10.42;100.0
68376;BME280;55318;52.068;5.188;2023-04-22T06:46:01;100727.0;;;10.52;100.0
68376;BME280;55318;52.068;5.188;2023-04-22T06:47:37;100724.0;;;10.56;100.0
68376;BME280;55318;52.068;5.188;2023-04-22T06:49:13;100718.0;;;10.56;100.0
68376;BME280;55318;52.068;5.188;2023-04-22T06:50:49;100723.0;;;10.62;100.0
68376;BME280;55318;52.068;5.188;2023-04-22T06:54:02;100717.0;;;10.67;100.0
68376;BME280;55318;52.068;5.188;2023-04-22T06:55:38;100715.0;;;10.74;100.0
68376;BME280;55318;52.068;5.188;2023-04-22T06:57:14;100713.0;;;10.76;100.0
68376;BME280;55318;52.068;5.188;2023-04-22T07:00:27;100709.0;;;10.86;100.0
68376;BME280;55318;52.068;5.188;2023-04-22T07:02:02;100707.0;;;11.03;100.0
68376;BME280;55318;52.068;5.188;2023-04-22T07:03:39;100710.0;;;11.15;100.0
68376;BME280;55318;52.068;5.188;2023-04-22T07:06:51;100712.0;;;11.18;100.0
68376;BME280;55318;52.068;5.188;2023-04-22T07:08:27;100705.0;;;11.27;100.0
68376;BME280;55318;52.068;5.188;2023-04-22T07:10:04;100710.0;;;11.35;100.0
68376;BME280;55318;52.068;5.188;2023-04-22T07:11:40;100707.0;;;11.52;99.54
68376;BME280;55318;52.068;5.188;2023-04-22T07:14:53;100715.0;;;11.62;98.7
68376;BME280;55318;52.068;5.188;2023-04-22T07:16:29;100721.0;;;11.67;96.93
68376;BME280;55318;52.068;5.188;2023-04-22T07:18:05;100718.0;;;11.84;95.88
68376;BME280;55318;52.068;5.188;2023-04-22T07:21:17;100711.0;;;11.84;95.49
68376;BME280;55318;52.068;5.188;2023-04-22T07:22:53;100707.0;;;11.85;95.43
68376;BME280;55318;52.068;5.188;2023-04-22T07:24:29;100709.0;;;11.97;95.68
68376;BME280;55318;52.068;5.188;2023-04-22T07:27:42;100713.0;;;12.09;95.52
68376;BME280;55318;52.068;5.188;2023-04-22T07:29:18;100705.0;;;12.16;96.45
68376;BME280;55318;52.068;5.188;2023-04-22T07:30:54;100696.0;;;12.37;96.75
68376;BME280;55318;52.068;5.188;2023-04-22T07:34:06;100700.0;;;12.78;96.37
68376;BME280;55318;52.068;5.188;2023-04-22T07:35:42;100700.0;;;13.16;94.2
68376;BME280;55318;52.068;5.188;2023-04-22T07:37:18;100702.0;;;13.51;92.87
68376;BME280;55318;52.068;5.188;2023-04-22T07:38:56;100708.0;;;13.76;90.05
68376;BME280;55318;52.068;5.188;2023-04-22T07:42:09;100720.0;;;14.25;87.22
68376;BME280;55318;52.068;5.188;2023-04-22T07:43:45;100720.0;;;14.6;85.21
68376;BME280;55318;52.068;5.188;2023-04-22T07:45:21;100721.0;;;15.01;85.76
68376;BME280;55318;52.068;5.188;2023-04-22T07:48:33;100717.0;;;15.25;83.47
68376;BME280;55318;52.068;5.188;2023-04-22T07:50:10;100727.0;;;15.16;80.25
68376;BME280;55318;52.068;5.188;2023-04-22T07:51:46;100726.0;;;15.32;80.0
68376;BME280;55318;52.068;5.188;2023-04-22T07:54:59;100726.0;;;15.58;84.01
68376;BME280;55318;52.068;5.188;2023-04-22T07:56:35;100737.0;;;15.64;83.21
68376;BME280;55318;52.068;5.188;2023-04-22T07:58:11;100733.0;;;15.65;80.36
68376;BME280;55318;52.068;5.188;2023-04-22T07:59:47;100730.0;;;15.7;78.56
68376;BME280;55318;52.068;5.188;2023-04-22T08:02:59;100731.0;;;15.63;79.91
68376;BME280;55318;52.068;5.188;2023-04-22T08:04:35;100728.0;;;15.57;80.8
68376;BME280;55318;52.068;5.188;2023-04-22T08:06:11;100727.0;;;15.78;80.61
68376;BME280;55318;52.068;5.188;2023-04-22T08:09:24;100728.0;;;16.02;80.87
68376;BME280;55318;52.068;5.188;2023-04-22T08:11:00;100720.0;;;16.16;79.66
68376;BME280;55318;52.068;5.188;2023-04-22T08:12:37;100710.0;;;16.36;78.41
68376;BME280;55318;52.068;5.188;2023-04-22T08:15:49;100702.0;;;16.54;78.12
68376;BME280;55318;52.068;5.188;2023-04-22T08:17:25;100705.0;;;16.38;77.08
68376;BME280;55318;52.068;5.188;2023-04-22T08:19:01;100696.0;;;16.68;75.5
68376;BME280;55318;52.068;5.188;2023-04-22T08:22:14;100687.0;;;16.89;78.33
68376;BME280;55318;52.068;5.188;2023-04-22T08:23:51;100676.0;;;17.34;79.16
68376;BME280;55318;52.068;5.188;2023-04-22T08:25:27;100678.0;;;17.36;73.89
68376;BME280;55318;52.068;5.188;2023-04-22T08:27:03;100671.0;;;17.46;73.72
68376;BME280;55318;52.068;5.188;2023-04-22T08:30:16;100675.0;;;17.59;71.99
68376;BME280;55318;52.068;5.188;2023-04-22T08:31:52;100682.0;;;17.66;71.03
68376;BME280;55318;52.068;5.188;2023-04-22T08:33:28;100686.0;;;17.21;71.0
68376;BME280;55318;52.068;5.188;2023-04-22T08:36:40;100682.0;;;17.14;71.45
68376;BME280;55318;52.068;5.188;2023-04-22T08:38:17;100682.0;;;17.38;74.74
68376;BME280;55318;52.068;5.188;2023-04-22T08:39:53;100676.0;;;17.41;72.91
68376;BME280;55318;52.068;5.188;2023-04-22T08:43:10;100681.0;;;17.2;71.63
68376;BME280;55318;52.068;5.188;2023-04-22T08:44:47;100684.0;;;17.39;73.08
68376;BME280;55318;52.068;5.188;2023-04-22T08:46:24;100683.0;;;17.38;71.89
68376;BME280;55318;52.068;5.188;2023-04-22T08:48:01;100676.0;;;17.45;72.91
68376;BME280;55318;52.068;5.188;2023-04-22T08:51:15;100678.0;;;17.66;74.95
68376;BME280;55318;52.068;5.188;2023-04-22T08:52:52;100677.0;;;17.82;70.2
68376;BME280;55318;52.068;5.188;2023-04-22T08:54:28;100674.0;;;18.03;73.41
68376;BME280;55318;52.068;5.188;2023-04-22T08:57:43;100666.0;;;18.16;70.08
68376;BME280;55318;52.068;5.188;2023-04-22T08:59:21;100668.0;;;18.23;70.02
68376;BME280;55318;52.068;5.188;2023-04-22T09:00:57;100671.0;;;18.34;67.16
68376;BME280;55318;52.068;5.188;2023-04-22T09:02:35;100666.0;;;18.09;67.03
68376;BME280;55318;52.068;5.188;2023-04-22T09:05:50;100660.0;;;18.09;69.37
68376;BME280;55318;52.068;5.188;2023-04-22T09:07:29;100660.0;;;18.37;67.34
68376;BME280;55318;52.068;5.188;2023-04-22T09:09:06;100661.0;;;18.43;67.62
68376;BME280;55318;52.068;5.188;2023-04-22T09:12:18;100655.0;;;18.54;67.85
68376;BME280;55318;52.068;5.188;2023-04-22T09:13:54;100649.0;;;18.52;67.28
68376;BME280;55318;52.068;5.188;2023-04-22T09:15:31;100645.0;;;18.86;65.77
68376;BME280;55318;52.068;5.188;2023-04-22T09:18:43;100644.0;;;18.72;64.89
68376;BME280;55318;52.068;5.188;2023-04-22T09:20:25;100642.0;;;18.96;67.11
68376;BME280;55318;52.068;5.188;2023-04-22T09:22:01;100638.0;;;19.13;66.44
68376;BME280;55318;52.068;5.188;2023-04-22T09:23:45;100633.0;;;18.98;67.53
68376;BME280;55318;52.068;5.188;2023-04-22T09:27:02;100631.0;;;18.75;65.63
68376;BME280;55318;52.068;5.188;2023-04-22T09:28:48;100630.0;;;18.96;65.45
68376;BME280;55318;52.068;5.188;2023-04-22T09:30:26;100630.0;;;19.11;66.69
68376;BME280;55318;52.068;5.188;2023-04-22T09:32:08;100623.0;;;19.36;72.95
68376;BME280;55318;52.068;5.188;2023-04-22T09:35:26;100617.0;;;19.45;64.2
68376;BME280;55318;52.068;5.188;2023-04-22T09:37:04;100607.0;;;19.38;63.36
68376;BME280;55318;52.068;5.188;2023-04-22T09:38:50;100597.0;;;19.2;65.33
68376;BME280;55318;52.068;5.188;2023-04-22T09:40:27;100592.0;;;19.34;63.32
68376;BME280;55318;52.068;5.188;2023-04-22T09:43:44;100584.0;;;19.07;62.2
68376;BME280;55318;52.068;5.188;2023-04-22T09:45:25;100580.0;;;19.32;69.38
68376;BME280;55318;52.068;5.188;2023-04-22T09:47:03;100580.0;;;19.61;67.61
68376;BME280;55318;52.068;5.188;2023-04-22T09:48:41;100583.0;;;19.71;66.1
68376;BME280;55318;52.068;5.188;2023-04-22T09:51:56;100590.0;;;19.97;67.27
68376;BME280;55318;52.068;5.188;2023-04-22T09:53:35;100590.0;;;20.0;64.92
68376;BME280;55318;52.068;5.188;2023-04-22T09:55:11;100590.0;;;20.11;61.9
68376;BME280;55318;52.068;5.188;2023-04-22T09:58:26;100587.0;;;20.39;62.45
68376;BME280;55318;52.068;5.188;2023-04-22T10:00:03;100593.0;;;20.2;59.72
68376;BME280;55318;52.068;5.188;2023-04-22T10:01:40;100603.0;;;20.31;61.78
68376;BME280;55318;52.068;5.188;2023-04-22T10:03:17;100601.0;;;20.0;61.91
68376;BME280;55318;52.068;5.188;2023-04-22T10:06:30;100607.0;;;20.18;60.75
68376;BME280;55318;52.068;5.188;2023-04-22T10:08:08;100605.0;;;20.45;62.55
68376;BME280;55318;52.068;5.188;2023-04-22T10:09:45;100606.0;;;20.36;60.85
68376;BME280;55318;52.068;5.188;2023-04-22T10:12:58;100606.0;;;20.34;60.09
68376;BME280;55318;52.068;5.188;2023-04-22T10:14:35;100603.0;;;20.21;61.01
68376;BME280;55318;52.068;5.188;2023-04-22T10:16:11;100606.0;;;20.11;61.24
68376;BME280;55318;52.068;5.188;2023-04-22T10:19:27;100605.0;;;20.09;62.75
68376;BME280;55318;52.068;5.188;2023-04-22T10:21:05;100605.0;;;20.03;61.44
68376;BME280;55318;52.068;5.188;2023-04-22T10:22:42;100605.0;;;20.07;61.09
68376;BME280;55318;52.068;5.188;2023-04-22T10:24:19;100603.0;;;19.98;61.77
68376;BME280;55318;52.068;5.188;2023-04-22T10:27:32;100605.0;;;20.12;61.93
68376;BME280;55318;52.068;5.188;2023-04-22T10:29:12;100600.0;;;20.54;63.65
68376;BME280;55318;52.068;5.188;2023-04-22T10:30:49;100605.0;;;20.74;67.97
68376;BME280;55318;52.068;5.188;2023-04-22T10:34:11;100606.0;;;20.9;61.15
68376;BME280;55318;52.068;5.188;2023-04-22T10:36:06;100607.0;;;20.56;61.35
68376;BME280;55318;52.068;5.188;2023-04-22T10:37:45;100605.0;;;20.41;61.04
68376;BME280;55318;52.068;5.188;2023-04-22T10:39:21;100608.0;;;20.28;61.28
68376;BME280;55318;52.068;5.188;2023-04-22T10:41:00;100609.0;;;20.03;61.4
68376;BME280;55318;52.068;5.188;2023-04-22T10:44:15;100611.0;;;20.21;63.08
68376;BME280;55318;52.068;5.188;2023-04-22T10:45:51;100611.0;;;20.18;62.17
68376;BME280;55318;52.068;5.188;2023-04-22T10:47:29;100616.0;;;19.91;62.43
68376;BME280;55318;52.068;5.188;2023-04-22T10:50:43;100620.0;;;19.95;63.37
68376;BME280;55318;52.068;5.188;2023-04-22T10:52:26;100622.0;;;19.88;62.63
68376;BME280;55318;52.068;5.188;2023-04-22T10:54:03;100616.0;;;19.93;63.3
68376;BME280;55318;52.068;5.188;2023-04-22T10:55:48;100624.0;;;19.88;64.52
68376;BME280;55318;52.068;5.188;2023-04-22T10:59:14;100628.0;;;19.68;65.3
68376;BME280;55318;52.068;5.188;2023-04-22T11:00:52;100631.0;;;19.63;64.0
68376;BME280;55318;52.068;5.188;2023-04-22T11:02:29;100630.0;;;19.61;64.41
68376;BME280;55318;52.068;5.188;2023-04-22T11:04:21;100630.0;;;19.25;64.05
68376;BME280;55318;52.068;5.188;2023-04-22T11:06:14;100621.0;;;18.77;65.48
68376;BME280;55318;52.068;5.188;2023-04-22T11:09:30;100630.0;;;18.87;65.78
68376;BME280;55318;52.068;5.188;2023-04-22T11:11:07;100634.0;;;18.95;66.36